This is the latest recevied weather packets stored in our database for station/object KA1JKB. If no packets are shown the sender has not sent any weather packets the latest 10 day(s).
| Time | Temp. | Humidity | Pressure | Rain* | Wind** | Luminosity | Snow |
|---|---|---|---|---|---|---|---|
| 1777594460 | 8.89° C | 55% | 1011.5 hPa | 0 mm | - | 5 W/m² | - |
| 1777594156 | 8.89° C | 57% | 1011.5 hPa | 0 mm | - | 4 W/m² | - |
| 1777593852 | 8.89° C | 55% | 1011.3 hPa | 0 mm | - | 9 W/m² | - |
| 1777593549 | 8.89° C | 58% | 1011.6 hPa | 0 mm | - | 12 W/m² | - |
| 1777593249 | 8.89° C | 56% | 1011.4 hPa | 0 mm | - | 21 W/m² | - |
| 1777592948 | 8.89° C | 54% | 1011.4 hPa | 0 mm | - | 21 W/m² | - |
| 1777592643 | 8.89° C | 53% | 1011.4 hPa | 0 mm | - | 26 W/m² | - |
| 1777592340 | 9.44° C | 53% | 1011.2 hPa | 0 mm | - | 24 W/m² | - |
| 1777592035 | 9.44° C | 53% | 1011.4 hPa | 0 mm | - | 30 W/m² | - |
| 1777591733 | 9.44° C | 52% | 1011.4 hPa | 0 mm | - | 44 W/m² | - |
| 1777591428 | 9.44° C | 53% | 1011.4 hPa | 0 mm | - | 48 W/m² | - |
| 1777591124 | 9.44° C | 51% | 1011.5 hPa | 0 mm | - | 47 W/m² | - |
| 1777590820 | 10° C | 52% | 1011.7 hPa | 0 mm | - | 53 W/m² | - |
| 1777590516 | 10° C | 51% | 1011.5 hPa | 0 mm | - | 70 W/m² | - |
| 1777590212 | 10.56° C | 53% | 1011.5 hPa | 0 mm | - | 92 W/m² | - |
| 1777589910 | 10.56° C | 50% | 1011.5 hPa | 0 mm | - | 215 W/m² | - |
| 1777589605 | 10.56° C | 52% | 1011.5 hPa | 0 mm | - | 134 W/m² | - |
| 1777589303 | 10.56° C | 50% | 1011.5 hPa | 0 mm | - | 139 W/m² | - |
| 1777589001 | 10.56° C | 51% | 1011.5 hPa | 0 mm | - | 126 W/m² | - |
| 1777588696 | 10.56° C | 49% | 1011.6 hPa | 0 mm | - | 140 W/m² | - |
| 1777588392 | 10.56° C | 49% | 1011.7 hPa | 0 mm | - | 157 W/m² | - |
| 1777588088 | 10.56° C | 50% | 1011.7 hPa | 0 mm | - | 127 W/m² | - |
| 1777587784 | 11.11° C | 51% | 1011.7 hPa | 0 mm | - | 149 W/m² | - |
| 1777587483 | 11.11° C | 54% | 1011.6 hPa | 0 mm | - | 145 W/m² | - |
| 1777587180 | 11.11° C | 51% | 1011.7 hPa | 0 mm | - | 216 W/m² | - |
* Rain latest hour (hover to see other rain measurements)
** Current wind speed in m/s (hover to see current wind gust speed)